sensor_id;sensor_type;location;lat;lon;timestamp;P1;durP1;ratioP1;P2;durP2;ratioP2
40951;SDS011;26682;51.660;19.338;2023-12-04T00:01:55;45.92;;;26.17;;
40951;SDS011;26682;51.660;19.338;2023-12-04T00:04:38;48.72;;;27.17;;
40951;SDS011;26682;51.660;19.338;2023-12-04T00:07:20;56.10;;;30.48;;
40951;SDS011;26682;51.660;19.338;2023-12-04T00:10:03;45.90;;;26.50;;
40951;SDS011;26682;51.660;19.338;2023-12-04T00:12:46;44.05;;;22.55;;
40951;SDS011;26682;51.660;19.338;2023-12-04T00:15:28;47.35;;;25.05;;
40951;SDS011;26682;51.660;19.338;2023-12-04T00:18:11;48.35;;;24.85;;
40951;SDS011;26682;51.660;19.338;2023-12-04T00:20:54;55.67;;;29.67;;
40951;SDS011;26682;51.660;19.338;2023-12-04T00:23:36;44.08;;;24.17;;
40951;SDS011;26682;51.660;19.338;2023-12-04T00:26:19;47.92;;;26.30;;
40951;SDS011;26682;51.660;19.338;2023-12-04T00:29:01;45.35;;;25.50;;
40951;SDS011;26682;51.660;19.338;2023-12-04T00:31:44;45.80;;;24.33;;
40951;SDS011;26682;51.660;19.338;2023-12-04T00:34:26;43.03;;;24.98;;
40951;SDS011;26682;51.660;19.338;2023-12-04T00:37:09;47.65;;;26.35;;
40951;SDS011;26682;51.660;19.338;2023-12-04T00:39:51;45.97;;;26.13;;
40951;SDS011;26682;51.660;19.338;2023-12-04T00:42:34;41.92;;;25.42;;
40951;SDS011;26682;51.660;19.338;2023-12-04T00:45:16;35.03;;;21.60;;
40951;SDS011;26682;51.660;19.338;2023-12-04T00:47:59;39.30;;;24.55;;
40951;SDS011;26682;51.660;19.338;2023-12-04T00:50:41;40.17;;;24.48;;
40951;SDS011;26682;51.660;19.338;2023-12-04T00:53:25;37.70;;;20.73;;
40951;SDS011;26682;51.660;19.338;2023-12-04T00:56:08;34.70;;;20.45;;
40951;SDS011;26682;51.660;19.338;2023-12-04T00:58:51;33.97;;;19.98;;
40951;SDS011;26682;51.660;19.338;2023-12-04T01:01:35;33.65;;;19.92;;
40951;SDS011;26682;51.660;19.338;2023-12-04T01:04:18;35.05;;;21.17;;
40951;SDS011;26682;51.660;19.338;2023-12-04T01:07:01;37.17;;;22.40;;
40951;SDS011;26682;51.660;19.338;2023-12-04T01:09:43;42.45;;;24.90;;
40951;SDS011;26682;51.660;19.338;2023-12-04T01:12:26;46.90;;;25.33;;
40951;SDS011;26682;51.660;19.338;2023-12-04T01:15:08;39.05;;;23.17;;
40951;SDS011;26682;51.660;19.338;2023-12-04T01:17:51;36.85;;;22.10;;
40951;SDS011;26682;51.660;19.338;2023-12-04T01:20:34;31.38;;;17.77;;
40951;SDS011;26682;51.660;19.338;2023-12-04T01:23:17;35.85;;;20.48;;
40951;SDS011;26682;51.660;19.338;2023-12-04T01:26:00;34.55;;;19.65;;
40951;SDS011;26682;51.660;19.338;2023-12-04T01:28:44;33.85;;;19.27;;
40951;SDS011;26682;51.660;19.338;2023-12-04T01:31:26;36.53;;;20.25;;
40951;SDS011;26682;51.660;19.338;2023-12-04T01:34:08;37.92;;;21.10;;
40951;SDS011;26682;51.660;19.338;2023-12-04T01:36:51;38.05;;;21.38;;
40951;SDS011;26682;51.660;19.338;2023-12-04T01:39:33;35.63;;;20.55;;
40951;SDS011;26682;51.660;19.338;2023-12-04T01:42:16;38.85;;;21.95;;
40951;SDS011;26682;51.660;19.338;2023-12-04T01:44:58;35.28;;;20.17;;
40951;SDS011;26682;51.660;19.338;2023-12-04T01:47:41;37.97;;;21.15;;
40951;SDS011;26682;51.660;19.338;2023-12-04T01:50:26;39.72;;;23.65;;
40951;SDS011;26682;51.660;19.338;2023-12-04T01:53:08;38.13;;;22.35;;
40951;SDS011;26682;51.660;19.338;2023-12-04T01:55:52;45.35;;;26.27;;
40951;SDS011;26682;51.660;19.338;2023-12-04T01:58:35;45.40;;;27.23;;
40951;SDS011;26682;51.660;19.338;2023-12-04T02:01:19;43.63;;;26.42;;
40951;SDS011;26682;51.660;19.338;2023-12-04T02:04:02;38.72;;;22.77;;
40951;SDS011;26682;51.660;19.338;2023-12-04T02:06:46;40.80;;;22.55;;
40951;SDS011;26682;51.660;19.338;2023-12-04T02:09:28;43.55;;;23.55;;
40951;SDS011;26682;51.660;19.338;2023-12-04T02:12:11;42.53;;;23.67;;
40951;SDS011;26682;51.660;19.338;2023-12-04T02:14:54;38.10;;;22.98;;
40951;SDS011;26682;51.660;19.338;2023-12-04T02:17:37;40.80;;;23.23;;
40951;SDS011;26682;51.660;19.338;2023-12-04T02:20:20;45.03;;;23.40;;
40951;SDS011;26682;51.660;19.338;2023-12-04T02:23:13;39.97;;;22.00;;
40951;SDS011;26682;51.660;19.338;2023-12-04T02:26:03;41.78;;;23.17;;
40951;SDS011;26682;51.660;19.338;2023-12-04T02:28:54;41.55;;;22.05;;
40951;SDS011;26682;51.660;19.338;2023-12-04T02:31:39;35.58;;;19.83;;
40951;SDS011;26682;51.660;19.338;2023-12-04T02:34:23;37.25;;;20.10;;
40951;SDS011;26682;51.660;19.338;2023-12-04T02:37:08;37.95;;;19.90;;
40951;SDS011;26682;51.660;19.338;2023-12-04T02:39:51;38.63;;;20.65;;
40951;SDS011;26682;51.660;19.338;2023-12-04T02:42:37;38.30;;;21.73;;
40951;SDS011;26682;51.660;19.338;2023-12-04T02:45:20;41.38;;;22.95;;
40951;SDS011;26682;51.660;19.338;2023-12-04T02:48:03;35.63;;;20.55;;
40951;SDS011;26682;51.660;19.338;2023-12-04T02:50:46;37.38;;;21.63;;
40951;SDS011;26682;51.660;19.338;2023-12-04T02:53:30;43.92;;;22.90;;
40951;SDS011;26682;51.660;19.338;2023-12-04T02:56:13;39.50;;;20.23;;
40951;SDS011;26682;51.660;19.338;2023-12-04T02:58:55;39.78;;;20.02;;
40951;SDS011;26682;51.660;19.338;2023-12-04T03:01:38;42.70;;;21.23;;
40951;SDS011;26682;51.660;19.338;2023-12-04T03:04:20;37.97;;;20.52;;
40951;SDS011;26682;51.660;19.338;2023-12-04T03:07:03;36.05;;;20.25;;
40951;SDS011;26682;51.660;19.338;2023-12-04T03:09:45;36.70;;;20.17;;
40951;SDS011;26682;51.660;19.338;2023-12-04T03:12:30;35.75;;;18.83;;
40951;SDS011;26682;51.660;19.338;2023-12-04T03:15:13;39.08;;;20.33;;
40951;SDS011;26682;51.660;19.338;2023-12-04T03:17:58;34.90;;;18.63;;
40951;SDS011;26682;51.660;19.338;2023-12-04T03:20:44;36.58;;;19.70;;
40951;SDS011;26682;51.660;19.338;2023-12-04T03:23:26;35.35;;;20.25;;
40951;SDS011;26682;51.660;19.338;2023-12-04T03:26:09;37.15;;;20.40;;
40951;SDS011;26682;51.660;19.338;2023-12-04T03:28:51;28.05;;;14.85;;
40951;SDS011;26682;51.660;19.338;2023-12-04T03:31:34;35.13;;;17.77;;
40951;SDS011;26682;51.660;19.338;2023-12-04T03:34:18;32.95;;;17.20;;
40951;SDS011;26682;51.660;19.338;2023-12-04T03:37:00;30.98;;;17.77;;
40951;SDS011;26682;51.660;19.338;2023-12-04T03:39:43;31.00;;;17.73;;
40951;SDS011;26682;51.660;19.338;2023-12-04T03:42:25;36.13;;;19.77;;
40951;SDS011;26682;51.660;19.338;2023-12-04T03:45:08;32.92;;;18.70;;
40951;SDS011;26682;51.660;19.338;2023-12-04T03:47:51;32.80;;;17.70;;
40951;SDS011;26682;51.660;19.338;2023-12-04T03:50:34;33.15;;;17.92;;
40951;SDS011;26682;51.660;19.338;2023-12-04T03:53:16;37.55;;;19.58;;
40951;SDS011;26682;51.660;19.338;2023-12-04T03:55:59;37.88;;;18.60;;
40951;SDS011;26682;51.660;19.338;2023-12-04T03:58:41;34.92;;;19.50;;
40951;SDS011;26682;51.660;19.338;2023-12-04T04:01:24;31.95;;;17.65;;
40951;SDS011;26682;51.660;19.338;2023-12-04T04:04:06;41.13;;;20.42;;
40951;SDS011;26682;51.660;19.338;2023-12-04T04:06:48;43.33;;;20.58;;
40951;SDS011;26682;51.660;19.338;2023-12-04T04:09:31;34.13;;;18.70;;
40951;SDS011;26682;51.660;19.338;2023-12-04T04:12:13;36.55;;;19.75;;
40951;SDS011;26682;51.660;19.338;2023-12-04T04:14:56;38.92;;;19.65;;
40951;SDS011;26682;51.660;19.338;2023-12-04T04:17:39;41.33;;;21.60;;
40951;SDS011;26682;51.660;19.338;2023-12-04T04:20:21;41.42;;;21.33;;
40951;SDS011;26682;51.660;19.338;2023-12-04T04:23:05;42.40;;;22.55;;
40951;SDS011;26682;51.660;19.338;2023-12-04T04:25:47;39.00;;;19.63;;
40951;SDS011;26682;51.660;19.338;2023-12-04T04:28:29;39.72;;;20.40;;
40951;SDS011;26682;51.660;19.338;2023-12-04T04:31:12;40.65;;;22.23;;
40951;SDS011;26682;51.660;19.338;2023-12-04T04:33:55;42.95;;;22.00;;
40951;SDS011;26682;51.660;19.338;2023-12-04T04:36:38;41.05;;;21.20;;
40951;SDS011;26682;51.660;19.338;2023-12-04T04:39:20;42.88;;;20.38;;
40951;SDS011;26682;51.660;19.338;2023-12-04T04:42:03;38.42;;;19.13;;
40951;SDS011;26682;51.660;19.338;2023-12-04T04:44:45;37.90;;;19.98;;
40951;SDS011;26682;51.660;19.338;2023-12-04T04:47:28;39.33;;;20.10;;
40951;SDS011;26682;51.660;19.338;2023-12-04T04:50:11;41.35;;;21.20;;
40951;SDS011;26682;51.660;19.338;2023-12-04T04:52:54;47.08;;;22.40;;
40951;SDS011;26682;51.660;19.338;2023-12-04T04:55:36;41.20;;;21.33;;
40951;SDS011;26682;51.660;19.338;2023-12-04T04:58:29;39.92;;;20.05;;
40951;SDS011;26682;51.660;19.338;2023-12-04T05:01:12;37.17;;;20.45;;
40951;SDS011;26682;51.660;19.338;2023-12-04T05:03:54;42.83;;;21.35;;
40951;SDS011;26682;51.660;19.338;2023-12-04T05:06:37;43.15;;;22.40;;
40951;SDS011;26682;51.660;19.338;2023-12-04T05:09:20;38.33;;;20.55;;
40951;SDS011;26682;51.660;19.338;2023-12-04T05:12:02;41.88;;;19.58;;
40951;SDS011;26682;51.660;19.338;2023-12-04T05:14:45;36.03;;;19.27;;
40951;SDS011;26682;51.660;19.338;2023-12-04T05:17:30;38.35;;;19.55;;
40951;SDS011;26682;51.660;19.338;2023-12-04T05:20:12;42.05;;;20.50;;
40951;SDS011;26682;51.660;19.338;2023-12-04T05:22:56;45.20;;;22.58;;
40951;SDS011;26682;51.660;19.338;2023-12-04T05:25:39;46.95;;;22.98;;
40951;SDS011;26682;51.660;19.338;2023-12-04T05:28:30;39.33;;;19.88;;
40951;SDS011;26682;51.660;19.338;2023-12-04T05:31:13;39.78;;;21.40;;
40951;SDS011;26682;51.660;19.338;2023-12-04T05:33:56;43.05;;;21.17;;
40951;SDS011;26682;51.660;19.338;2023-12-04T05:36:39;39.97;;;20.40;;
40951;SDS011;26682;51.660;19.338;2023-12-04T05:39:22;40.30;;;20.75;;
40951;SDS011;26682;51.660;19.338;2023-12-04T05:42:04;41.13;;;21.00;;
40951;SDS011;26682;51.660;19.338;2023-12-04T05:44:47;38.25;;;20.58;;
40951;SDS011;26682;51.660;19.338;2023-12-04T05:47:29;40.83;;;21.75;;
40951;SDS011;26682;51.660;19.338;2023-12-04T05:50:12;39.92;;;21.35;;
40951;SDS011;26682;51.660;19.338;2023-12-04T05:52:55;44.88;;;23.27;;
40951;SDS011;26682;51.660;19.338;2023-12-04T05:55:37;52.85;;;26.70;;
40951;SDS011;26682;51.660;19.338;2023-12-04T05:58:20;46.30;;;22.15;;
40951;SDS011;26682;51.660;19.338;2023-12-04T06:01:02;48.97;;;22.38;;
40951;SDS011;26682;51.660;19.338;2023-12-04T06:03:45;49.22;;;23.77;;
40951;SDS011;26682;51.660;19.338;2023-12-04T06:06:28;54.63;;;28.08;;
40951;SDS011;26682;51.660;19.338;2023-12-04T06:09:10;50.22;;;25.45;;
40951;SDS011;26682;51.660;19.338;2023-12-04T06:11:52;52.20;;;27.00;;
40951;SDS011;26682;51.660;19.338;2023-12-04T06:14:35;55.47;;;27.38;;
40951;SDS011;26682;51.660;19.338;2023-12-04T06:17:18;49.58;;;24.33;;
40951;SDS011;26682;51.660;19.338;2023-12-04T06:20:01;50.15;;;25.13;;
40951;SDS011;26682;51.660;19.338;2023-12-04T06:22:43;46.55;;;22.92;;
40951;SDS011;26682;51.660;19.338;2023-12-04T06:25:26;45.67;;;23.40;;
40951;SDS011;26682;51.660;19.338;2023-12-04T06:28:09;44.28;;;22.92;;
40951;SDS011;26682;51.660;19.338;2023-12-04T06:30:52;43.47;;;23.00;;
40951;SDS011;26682;51.660;19.338;2023-12-04T06:33:35;45.70;;;22.00;;
40951;SDS011;26682;51.660;19.338;2023-12-04T06:36:18;48.33;;;23.45;;
40951;SDS011;26682;51.660;19.338;2023-12-04T06:39:02;47.45;;;23.13;;
40951;SDS011;26682;51.660;19.338;2023-12-04T06:41:46;42.83;;;22.50;;
40951;SDS011;26682;51.660;19.338;2023-12-04T06:44:30;45.47;;;22.65;;
40951;SDS011;26682;51.660;19.338;2023-12-04T06:47:12;42.63;;;22.95;;
40951;SDS011;26682;51.660;19.338;2023-12-04T06:50:00;47.28;;;24.80;;
40951;SDS011;26682;51.660;19.338;2023-12-04T06:52:42;46.15;;;23.85;;
40951;SDS011;26682;51.660;19.338;2023-12-04T06:55:25;47.75;;;24.52;;
40951;SDS011;26682;51.660;19.338;2023-12-04T06:58:07;46.13;;;24.90;;
40951;SDS011;26682;51.660;19.338;2023-12-04T07:00:50;52.97;;;27.38;;
40951;SDS011;26682;51.660;19.338;2023-12-04T07:03:35;49.75;;;26.33;;
40951;SDS011;26682;51.660;19.338;2023-12-04T07:06:18;47.13;;;25.17;;
40951;SDS011;26682;51.660;19.338;2023-12-04T07:09:00;50.00;;;25.33;;
40951;SDS011;26682;51.660;19.338;2023-12-04T07:11:43;48.85;;;25.70;;
40951;SDS011;26682;51.660;19.338;2023-12-04T07:14:25;51.05;;;25.70;;
40951;SDS011;26682;51.660;19.338;2023-12-04T07:17:09;44.40;;;23.65;;
40951;SDS011;26682;51.660;19.338;2023-12-04T07:19:53;46.55;;;25.23;;
40951;SDS011;26682;51.660;19.338;2023-12-04T07:22:36;47.10;;;24.88;;
40951;SDS011;26682;51.660;19.338;2023-12-04T07:25:19;51.15;;;27.90;;
40951;SDS011;26682;51.660;19.338;2023-12-04T07:28:02;70.13;;;31.73;;
40951;SDS011;26682;51.660;19.338;2023-12-04T07:30:45;76.15;;;34.88;;
40951;SDS011;26682;51.660;19.338;2023-12-04T07:33:28;72.30;;;35.80;;
40951;SDS011;26682;51.660;19.338;2023-12-04T07:36:11;52.25;;;27.02;;
40951;SDS011;26682;51.660;19.338;2023-12-04T07:38:53;61.15;;;31.23;;
40951;SDS011;26682;51.660;19.338;2023-12-04T07:41:36;49.35;;;26.98;;
40951;SDS011;26682;51.660;19.338;2023-12-04T07:44:19;53.85;;;28.50;;
40951;SDS011;26682;51.660;19.338;2023-12-04T07:47:01;43.45;;;23.77;;
40951;SDS011;26682;51.660;19.338;2023-12-04T07:49:44;42.58;;;23.95;;
40951;SDS011;26682;51.660;19.338;2023-12-04T07:52:27;47.92;;;26.40;;
40951;SDS011;26682;51.660;19.338;2023-12-04T07:55:10;41.38;;;22.55;;
40951;SDS011;26682;51.660;19.338;2023-12-04T07:57:53;41.05;;;23.05;;
40951;SDS011;26682;51.660;19.338;2023-12-04T08:00:35;42.70;;;22.02;;
40951;SDS011;26682;51.660;19.338;2023-12-04T08:03:18;42.08;;;22.85;;
40951;SDS011;26682;51.660;19.338;2023-12-04T08:06:00;44.00;;;24.70;;
40951;SDS011;26682;51.660;19.338;2023-12-04T08:08:43;42.17;;;25.80;;
40951;SDS011;26682;51.660;19.338;2023-12-04T08:11:26;40.35;;;23.05;;
40951;SDS011;26682;51.660;19.338;2023-12-04T08:14:08;49.03;;;24.77;;
40951;SDS011;26682;51.660;19.338;2023-12-04T08:16:51;44.03;;;24.65;;
40951;SDS011;26682;51.660;19.338;2023-12-04T08:19:33;41.97;;;23.63;;
40951;SDS011;26682;51.660;19.338;2023-12-04T08:22:18;42.72;;;23.85;;
40951;SDS011;26682;51.660;19.338;2023-12-04T08:25:01;46.60;;;25.13;;
40951;SDS011;26682;51.660;19.338;2023-12-04T08:27:43;46.40;;;24.13;;
40951;SDS011;26682;51.660;19.338;2023-12-04T08:30:26;46.10;;;25.77;;
40951;SDS011;26682;51.660;19.338;2023-12-04T08:33:09;47.88;;;26.92;;
40951;SDS011;26682;51.660;19.338;2023-12-04T08:35:52;48.38;;;25.30;;
40951;SDS011;26682;51.660;19.338;2023-12-04T08:38:35;41.60;;;24.52;;
40951;SDS011;26682;51.660;19.338;2023-12-04T08:41:18;48.15;;;25.92;;
40951;SDS011;26682;51.660;19.338;2023-12-04T08:44:00;54.78;;;29.55;;
40951;SDS011;26682;51.660;19.338;2023-12-04T08:46:43;51.50;;;27.92;;
40951;SDS011;26682;51.660;19.338;2023-12-04T08:49:27;46.20;;;26.08;;
40951;SDS011;26682;51.660;19.338;2023-12-04T08:52:23;50.33;;;27.23;;
40951;SDS011;26682;51.660;19.338;2023-12-04T08:55:06;50.65;;;26.35;;
40951;SDS011;26682;51.660;19.338;2023-12-04T08:57:49;45.13;;;24.65;;
40951;SDS011;26682;51.660;19.338;2023-12-04T09:00:32;46.00;;;25.88;;
40951;SDS011;26682;51.660;19.338;2023-12-04T09:03:14;45.95;;;25.02;;
40951;SDS011;26682;51.660;19.338;2023-12-04T09:06:10;44.17;;;24.45;;
40951;SDS011;26682;51.660;19.338;2023-12-04T09:08:53;50.83;;;25.93;;
40951;SDS011;26682;51.660;19.338;2023-12-04T09:11:48;40.60;;;23.88;;
40951;SDS011;26682;51.660;19.338;2023-12-04T09:14:30;45.30;;;25.52;;
40951;SDS011;26682;51.660;19.338;2023-12-04T09:17:13;48.45;;;26.13;;
40951;SDS011;26682;51.660;19.338;2023-12-04T09:19:56;47.30;;;26.48;;
40951;SDS011;26682;51.660;19.338;2023-12-04T09:22:38;66.97;;;30.98;;
40951;SDS011;26682;51.660;19.338;2023-12-04T09:25:33;50.78;;;27.52;;
40951;SDS011;26682;51.660;19.338;2023-12-04T09:28:16;41.17;;;22.25;;
40951;SDS011;26682;51.660;19.338;2023-12-04T09:30:58;53.25;;;30.77;;
40951;SDS011;26682;51.660;19.338;2023-12-04T09:33:41;52.88;;;28.58;;
40951;SDS011;26682;51.660;19.338;2023-12-04T09:36:24;45.92;;;26.02;;
40951;SDS011;26682;51.660;19.338;2023-12-04T09:39:07;45.75;;;27.60;;
40951;SDS011;26682;51.660;19.338;2023-12-04T09:41:49;46.17;;;27.23;;
40951;SDS011;26682;51.660;19.338;2023-12-04T09:44:33;45.22;;;26.50;;
40951;SDS011;26682;51.660;19.338;2023-12-04T09:47:18;50.58;;;29.00;;
40951;SDS011;26682;51.660;19.338;2023-12-04T09:50:01;74.15;;;40.65;;
40951;SDS011;26682;51.660;19.338;2023-12-04T09:52:43;55.67;;;33.13;;
40951;SDS011;26682;51.660;19.338;2023-12-04T09:55:26;44.58;;;29.98;;
40951;SDS011;26682;51.660;19.338;2023-12-04T09:58:09;49.35;;;31.65;;
40951;SDS011;26682;51.660;19.338;2023-12-04T10:00:56;46.78;;;28.35;;
40951;SDS011;26682;51.660;19.338;2023-12-04T10:03:40;86.00;;;43.95;;
40951;SDS011;26682;51.660;19.338;2023-12-04T10:06:27;64.80;;;39.13;;
40951;SDS011;26682;51.660;19.338;2023-12-04T10:09:10;89.05;;;46.28;;
40951;SDS011;26682;51.660;19.338;2023-12-04T10:11:55;54.50;;;28.63;;
40951;SDS011;26682;51.660;19.338;2023-12-04T10:14:38;40.38;;;25.52;;
40951;SDS011;26682;51.660;19.338;2023-12-04T10:17:21;46.30;;;27.23;;
40951;SDS011;26682;51.660;19.338;2023-12-04T10:20:08;48.08;;;28.05;;
40951;SDS011;26682;51.660;19.338;2023-12-04T10:23:00;30.10;;;19.17;;
40951;SDS011;26682;51.660;19.338;2023-12-04T10:25:42;39.33;;;23.17;;
40951;SDS011;26682;51.660;19.338;2023-12-04T10:28:25;43.38;;;26.85;;
40951;SDS011;26682;51.660;19.338;2023-12-04T10:31:08;46.33;;;27.52;;
40951;SDS011;26682;51.660;19.338;2023-12-04T10:33:51;38.67;;;22.85;;
40951;SDS011;26682;51.660;19.338;2023-12-04T10:36:34;38.70;;;22.02;;
40951;SDS011;26682;51.660;19.338;2023-12-04T10:39:17;47.03;;;25.25;;
40951;SDS011;26682;51.660;19.338;2023-12-04T10:42:02;43.60;;;24.45;;
40951;SDS011;26682;51.660;19.338;2023-12-04T10:44:46;33.95;;;20.30;;
40951;SDS011;26682;51.660;19.338;2023-12-04T10:47:28;39.88;;;21.05;;
40951;SDS011;26682;51.660;19.338;2023-12-04T10:52:57;39.85;;;21.20;;
40951;SDS011;26682;51.660;19.338;2023-12-04T10:55:40;37.50;;;22.60;;
40951;SDS011;26682;51.660;19.338;2023-12-04T10:58:24;38.67;;;22.48;;
40951;SDS011;26682;51.660;19.338;2023-12-04T11:01:09;37.40;;;20.90;;
40951;SDS011;26682;51.660;19.338;2023-12-04T11:03:54;39.75;;;22.75;;
40951;SDS011;26682;51.660;19.338;2023-12-04T11:06:41;32.05;;;20.70;;
40951;SDS011;26682;51.660;19.338;2023-12-04T11:09:24;27.70;;;16.98;;
40951;SDS011;26682;51.660;19.338;2023-12-04T11:12:11;39.55;;;23.08;;
40951;SDS011;26682;51.660;19.338;2023-12-04T11:14:59;208.75;;;85.30;;
40951;SDS011;26682;51.660;19.338;2023-12-04T11:17:46;58.72;;;27.85;;
40951;SDS011;26682;51.660;19.338;2023-12-04T11:20:33;44.47;;;24.60;;
40951;SDS011;26682;51.660;19.338;2023-12-04T11:23:23;48.92;;;26.13;;
40951;SDS011;26682;51.660;19.338;2023-12-04T11:26:06;45.78;;;24.40;;
40951;SDS011;26682;51.660;19.338;2023-12-04T11:28:51;42.55;;;25.27;;
40951;SDS011;26682;51.660;19.338;2023-12-04T11:31:34;45.22;;;25.52;;
40951;SDS011;26682;51.660;19.338;2023-12-04T11:34:18;36.92;;;21.17;;
40951;SDS011;26682;51.660;19.338;2023-12-04T11:37:01;32.38;;;18.15;;
40951;SDS011;26682;51.660;19.338;2023-12-04T11:39:49;35.47;;;21.38;;
40951;SDS011;26682;51.660;19.338;2023-12-04T11:42:31;52.20;;;25.73;;
40951;SDS011;26682;51.660;19.338;2023-12-04T11:45:18;48.42;;;26.90;;
40951;SDS011;26682;51.660;19.338;2023-12-04T11:48:05;42.63;;;23.40;;
40951;SDS011;26682;51.660;19.338;2023-12-04T11:50:51;35.20;;;19.88;;
40951;SDS011;26682;51.660;19.338;2023-12-04T11:53:37;36.05;;;20.02;;
40951;SDS011;26682;51.660;19.338;2023-12-04T11:56:21;28.25;;;17.23;;
40951;SDS011;26682;51.660;19.338;2023-12-04T11:59:04;28.52;;;17.92;;
40951;SDS011;26682;51.660;19.338;2023-12-04T12:01:55;25.83;;;16.55;;
40951;SDS011;26682;51.660;19.338;2023-12-04T12:04:41;28.50;;;18.52;;
40951;SDS011;26682;51.660;19.338;2023-12-04T12:07:24;27.75;;;16.48;;
40951;SDS011;26682;51.660;19.338;2023-12-04T12:10:06;33.25;;;18.60;;
40951;SDS011;26682;51.660;19.338;2023-12-04T12:12:50;29.30;;;16.90;;
40951;SDS011;26682;51.660;19.338;2023-12-04T12:15:34;27.90;;;15.27;;
40951;SDS011;26682;51.660;19.338;2023-12-04T12:18:17;21.70;;;14.10;;
40951;SDS011;26682;51.660;19.338;2023-12-04T12:21:00;26.23;;;16.95;;
40951;SDS011;26682;51.660;19.338;2023-12-04T12:23:43;50.75;;;28.73;;
40951;SDS011;26682;51.660;19.338;2023-12-04T12:26:26;39.78;;;23.95;;
40951;SDS011;26682;51.660;19.338;2023-12-04T12:29:10;45.40;;;26.08;;
40951;SDS011;26682;51.660;19.338;2023-12-04T12:31:53;41.88;;;22.67;;
40951;SDS011;26682;51.660;19.338;2023-12-04T12:34:36;34.30;;;20.17;;
40951;SDS011;26682;51.660;19.338;2023-12-04T12:37:19;46.97;;;24.52;;
40951;SDS011;26682;51.660;19.338;2023-12-04T12:40:03;62.28;;;33.10;;
40951;SDS011;26682;51.660;19.338;2023-12-04T12:42:46;25.42;;;16.65;;
40951;SDS011;26682;51.660;19.338;2023-12-04T12:45:38;30.75;;;16.85;;
40951;SDS011;26682;51.660;19.338;2023-12-04T12:48:24;42.40;;;18.90;;
40951;SDS011;26682;51.660;19.338;2023-12-04T12:51:11;34.13;;;18.70;;
40951;SDS011;26682;51.660;19.338;2023-12-04T12:53:56;35.08;;;19.35;;
40951;SDS011;26682;51.660;19.338;2023-12-04T12:56:39;27.13;;;16.15;;
40951;SDS011;26682;51.660;19.338;2023-12-04T12:59:22;25.80;;;16.67;;
40951;SDS011;26682;51.660;19.338;2023-12-04T13:02:05;30.65;;;16.55;;
40951;SDS011;26682;51.660;19.338;2023-12-04T13:04:52;42.25;;;23.75;;
40951;SDS011;26682;51.660;19.338;2023-12-04T13:07:35;32.83;;;18.98;;
40951;SDS011;26682;51.660;19.338;2023-12-04T13:10:18;30.85;;;18.20;;
40951;SDS011;26682;51.660;19.338;2023-12-04T13:13:01;33.58;;;18.85;;
40951;SDS011;26682;51.660;19.338;2023-12-04T13:15:43;31.92;;;18.90;;
40951;SDS011;26682;51.660;19.338;2023-12-04T13:18:26;78.47;;;39.67;;
40951;SDS011;26682;51.660;19.338;2023-12-04T13:21:09;64.20;;;32.58;;
40951;SDS011;26682;51.660;19.338;2023-12-04T13:23:52;41.83;;;23.17;;
40951;SDS011;26682;51.660;19.338;2023-12-04T13:26:35;39.33;;;19.77;;
40951;SDS011;26682;51.660;19.338;2023-12-04T13:29:18;37.28;;;19.75;;
40951;SDS011;26682;51.660;19.338;2023-12-04T13:32:01;34.67;;;19.83;;
40951;SDS011;26682;51.660;19.338;2023-12-04T13:34:45;36.47;;;20.08;;
40951;SDS011;26682;51.660;19.338;2023-12-04T13:37:31;36.63;;;19.73;;
40951;SDS011;26682;51.660;19.338;2023-12-04T13:40:15;38.50;;;20.00;;
40951;SDS011;26682;51.660;19.338;2023-12-04T13:42:58;45.58;;;23.17;;
40951;SDS011;26682;51.660;19.338;2023-12-04T13:45:59;56.38;;;28.15;;
40951;SDS011;26682;51.660;19.338;2023-12-04T13:48:42;55.35;;;30.08;;
40951;SDS011;26682;51.660;19.338;2023-12-04T13:51:25;52.55;;;30.67;;
40951;SDS011;26682;51.660;19.338;2023-12-04T13:54:09;101.00;;;45.55;;
40951;SDS011;26682;51.660;19.338;2023-12-04T13:57:02;80.63;;;38.65;;
40951;SDS011;26682;51.660;19.338;2023-12-04T13:59:48;63.10;;;31.60;;
40951;SDS011;26682;51.660;19.338;2023-12-04T14:02:32;61.00;;;29.98;;
40951;SDS011;26682;51.660;19.338;2023-12-04T14:05:16;62.20;;;30.27;;
40951;SDS011;26682;51.660;19.338;2023-12-04T14:08:00;58.65;;;29.08;;
40951;SDS011;26682;51.660;19.338;2023-12-04T14:10:44;47.33;;;24.58;;
40951;SDS011;26682;51.660;19.338;2023-12-04T14:13:29;41.50;;;23.67;;
40951;SDS011;26682;51.660;19.338;2023-12-04T14:16:15;43.75;;;24.73;;
40951;SDS011;26682;51.660;19.338;2023-12-04T14:18:58;43.78;;;23.08;;
40951;SDS011;26682;51.660;19.338;2023-12-04T14:21:41;45.58;;;24.40;;
40951;SDS011;26682;51.660;19.338;2023-12-04T14:24:24;45.53;;;24.60;;
40951;SDS011;26682;51.660;19.338;2023-12-04T14:27:07;45.78;;;25.10;;
40951;SDS011;26682;51.660;19.338;2023-12-04T14:29:50;51.05;;;25.13;;
40951;SDS011;26682;51.660;19.338;2023-12-04T14:32:32;54.60;;;26.15;;
40951;SDS011;26682;51.660;19.338;2023-12-04T14:35:28;58.17;;;29.45;;
40951;SDS011;26682;51.660;19.338;2023-12-04T14:38:10;58.15;;;30.33;;
40951;SDS011;26682;51.660;19.338;2023-12-04T14:40:53;58.15;;;29.85;;
40951;SDS011;26682;51.660;19.338;2023-12-04T14:43:36;63.58;;;32.95;;
40951;SDS011;26682;51.660;19.338;2023-12-04T14:46:20;67.35;;;35.90;;
40951;SDS011;26682;51.660;19.338;2023-12-04T14:49:03;70.05;;;38.97;;
40951;SDS011;26682;51.660;19.338;2023-12-04T14:51:47;77.30;;;38.90;;
40951;SDS011;26682;51.660;19.338;2023-12-04T14:54:30;73.93;;;37.53;;
40951;SDS011;26682;51.660;19.338;2023-12-04T14:57:33;81.07;;;36.55;;
40951;SDS011;26682;51.660;19.338;2023-12-04T15:00:21;83.95;;;38.05;;
40951;SDS011;26682;51.660;19.338;2023-12-04T15:03:07;80.90;;;39.13;;
40951;SDS011;26682;51.660;19.338;2023-12-04T15:05:50;93.50;;;41.17;;
40951;SDS011;26682;51.660;19.338;2023-12-04T15:08:35;96.72;;;42.63;;
40951;SDS011;26682;51.660;19.338;2023-12-04T15:11:30;100.63;;;41.75;;
40951;SDS011;26682;51.660;19.338;2023-12-04T15:14:18;84.35;;;39.17;;
40951;SDS011;26682;51.660;19.338;2023-12-04T15:17:19;88.55;;;41.53;;
40951;SDS011;26682;51.660;19.338;2023-12-04T15:20:11;84.35;;;39.42;;
40951;SDS011;26682;51.660;19.338;2023-12-04T15:22:54;92.85;;;41.05;;
40951;SDS011;26682;51.660;19.338;2023-12-04T15:25:37;91.75;;;43.03;;
40951;SDS011;26682;51.660;19.338;2023-12-04T15:28:19;97.40;;;44.08;;
40951;SDS011;26682;51.660;19.338;2023-12-04T15:31:02;91.53;;;44.03;;
40951;SDS011;26682;51.660;19.338;2023-12-04T15:33:46;86.93;;;42.17;;
40951;SDS011;26682;51.660;19.338;2023-12-04T15:36:29;86.20;;;41.17;;
40951;SDS011;26682;51.660;19.338;2023-12-04T15:39:11;84.47;;;42.70;;
40951;SDS011;26682;51.660;19.338;2023-12-04T15:41:55;97.53;;;46.55;;
40951;SDS011;26682;51.660;19.338;2023-12-04T15:44:40;106.97;;;49.85;;
40951;SDS011;26682;51.660;19.338;2023-12-04T15:47:23;100.35;;;51.25;;